Time;durP1;ratioP1;P1;durP2;ratioP2;P2;SDS_P1;SDS_P2;PMS_P1;PMS_P2;Temp;Humidity;BMP_temperature;BMP_pressure;BME280_temperature;BME280_humidity;BME280_pressure;Samples;Min_cycle;Max_cycle;Signal;HPM_P1;HPM_P2
2020/12/29 00:01:56;;;;;;;11.88;3.55;;;13.20;99.90;;;;;;4840111;29;20423;-73
2020/12/29 00:04:25;;;;;;;13.52;3.83;;;13.30;99.90;;;;;;4838500;29;20041;-75
2020/12/29 00:06:57;;;;;;;12.02;3.53;;;13.20;99.90;;;;;;4839015;29;20113;-74
2020/12/29 00:09:28;;;;;;;17.13;3.70;;;13.20;99.90;;;;;;4834040;29;20050;-74
2020/12/29 00:11:56;;;;;;;15.60;3.78;;;13.30;99.90;;;;;;4840041;29;20246;-74
2020/12/29 00:14:23;;;;;;;18.10;3.50;;;13.20;99.90;;;;;;4839268;29;20533;-74
2020/12/29 00:16:50;;;;;;;18.10;3.17;;;13.30;99.90;;;;;;4834810;29;20123;-74
2020/12/29 00:19:22;;;;;;;19.90;3.30;;;13.30;99.90;;;;;;4830273;29;20037;-75
2020/12/29 00:21:49;;;;;;;19.63;2.67;;;13.30;99.90;;;;;;4835457;29;20485;-74
2020/12/29 00:24:16;;;;;;;16.77;2.38;;;13.30;99.90;;;;;;4835139;29;20512;-74
2020/12/29 00:26:41;;;;;;;12.73;3.40;;;13.20;99.90;;;;;;4824412;29;20042;-74
2020/12/29 00:29:08;;;;;;;16.00;3.65;;;13.30;99.90;;;;;;4838488;29;20018;-74
2020/12/29 00:31:35;;;;;;;18.25;3.63;;;13.20;99.90;;;;;;4838850;29;20568;-74
2020/12/29 00:34:02;;;;;;;15.93;3.22;;;13.20;99.90;;;;;;4822420;29;20401;-74
2020/12/29 00:36:28;;;;;;;17.60;4.40;;;13.20;99.90;;;;;;4820504;29;20022;-74
2020/12/29 00:38:55;;;;;;;14.40;3.30;;;13.30;99.90;;;;;;4832758;29;20031;-74
2020/12/29 00:41:28;;;;;;;18.58;3.60;;;13.30;99.90;;;;;;4835680;29;20026;-73
2020/12/29 00:43:54;;;;;;;;;;;13.20;99.90;;;;;;4839767;29;20040;-74
2020/12/29 00:46:21;;;;;;;12.27;2.80;;;13.20;99.90;;;;;;4836699;29;20957;-74
2020/12/29 00:48:49;;;;;;;17.85;4.00;;;13.20;99.90;;;;;;4810435;29;20315;-74
2020/12/29 00:51:19;;;;;;;13.45;2.80;;;13.20;99.90;;;;;;4814817;29;20505;-74
2020/12/29 00:53:53;;;;;;;12.32;2.92;;;13.20;99.90;;;;;;4814162;29;20045;-74
2020/12/29 00:56:20;;;;;;;8.05;3.58;;;13.20;99.90;;;;;;4817313;29;20598;-74
2020/12/29 00:58:50;;;;;;;10.88;3.00;;;13.20;99.90;;;;;;4836841;29;20456;-74
2020/12/29 01:01:17;;;;;;;29.42;5.53;;;13.20;99.90;;;;;;4811129;29;20072;-74
2020/12/29 01:04:03;;;;;;;10.52;2.97;;;13.20;99.90;;;;;;4823927;29;20431;-74
2020/12/29 01:06:32;;;;;;;22.65;5.25;;;13.20;99.90;;;;;;4815691;29;20687;-74
2020/12/29 01:09:03;;;;;;;;;;;13.20;99.90;;;;;;4804331;29;20396;-75
2020/12/29 01:11:29;;;;;;;17.08;3.95;;;13.20;99.90;;;;;;4821328;29;19916;-75
2020/12/29 01:13:57;;;;;;;25.20;4.68;;;13.30;99.90;;;;;;4824242;29;20125;-75
2020/12/29 01:16:25;;;;;;;26.27;3.38;;;13.20;99.90;;;;;;4821582;29;20042;-74
2020/12/29 01:18:55;;;;;;;12.13;4.35;;;13.30;99.90;;;;;;4814011;29;20041;-75
2020/12/29 01:21:22;;;;;;;20.70;3.17;;;13.20;99.90;;;;;;4836371;29;20504;-75
2020/12/29 01:23:48;;;;;;;17.92;3.83;;;13.20;99.90;;;;;;4835705;29;20093;-75
2020/12/29 01:26:26;;;;;;;17.05;4.63;;;13.30;99.90;;;;;;4833139;29;20161;-75
2020/12/29 01:28:53;;;;;;;19.75;4.25;;;13.20;99.90;;;;;;4838924;29;20030;-74
2020/12/29 01:31:30;;;;;;;26.42;4.97;;;13.20;99.90;;;;;;4827566;29;20050;-75
2020/12/29 01:33:57;;;;;;;14.70;3.33;;;13.20;99.90;;;;;;4810730;29;20071;-74
2020/12/29 01:36:25;;;;;;;14.25;4.07;;;13.20;99.90;;;;;;4830047;29;21068;-74
2020/12/29 01:38:51;;;;;;;18.48;4.15;;;13.20;99.90;;;;;;4830650;29;20075;-74
2020/12/29 01:41:22;;;;;;;13.07;3.72;;;13.20;99.90;;;;;;4823662;29;20038;-74
2020/12/29 01:43:49;;;;;;;20.90;4.13;;;13.10;99.90;;;;;;4832009;29;20064;-74
2020/12/29 01:46:15;;;;;;;18.75;3.30;;;13.20;99.90;;;;;;4811997;29;20493;-74
2020/12/29 01:48:42;;;;;;;17.40;4.40;;;13.20;99.90;;;;;;4832659;29;20104;-75
2020/12/29 01:51:09;;;;;;;14.93;3.60;;;13.20;99.90;;;;;;4841589;29;20597;-75
2020/12/29 01:53:39;;;;;;;18.30;2.65;;;13.20;99.90;;;;;;4829763;29;20481;-75
2020/12/29 01:56:10;;;;;;;19.08;3.40;;;13.20;99.90;;;;;;4817401;29;20034;-75
2020/12/29 01:58:38;;;;;;;19.83;3.45;;;13.10;99.90;;;;;;4836056;29;20034;-75
2020/12/29 02:01:05;;;;;;;13.35;3.08;;;13.20;99.90;;;;;;4833297;29;20089;-75
2020/12/29 02:03:32;;;;;;;13.15;2.97;;;13.20;99.90;;;;;;4841180;29;20048;-75
2020/12/29 02:05:58;;;;;;;18.67;3.72;;;13.20;99.90;;;;;;4841501;29;20125;-75
2020/12/29 08:05:01;;;;;;;32.90;6.28;;;14.20;99.90;;;;;;4516700;24;20053;-75
2020/12/29 08:07:27;;;;;;;30.77;6.53;;;14.20;99.90;;;;;;4840096;29;20567;-76
2020/12/29 08:09:53;;;;;;;27.52;5.82;;;14.20;99.90;;;;;;4840227;29;20037;-77
2020/12/29 08:12:20;;;;;;;29.63;6.35;;;14.30;99.90;;;;;;4840226;29;20178;-75
2020/12/29 08:14:46;;;;;;;22.55;5.32;;;14.30;99.90;;;;;;4841006;29;20117;-77
2020/12/29 08:17:12;;;;;;;40.20;5.95;;;14.40;99.90;;;;;;4839909;29;20052;-80
2020/12/29 08:19:38;;;;;;;16.73;4.95;;;14.50;99.90;;;;;;4825268;29;20026;-76
2020/12/29 08:22:11;;;;;;;43.45;5.85;;;14.50;99.90;;;;;;4821747;29;20041;-75
2020/12/29 08:24:44;;;;;;;29.67;6.53;;;14.50;99.90;;;;;;4838974;29;20025;-73
2020/12/29 08:27:10;;;;;;;36.40;7.93;;;14.50;99.90;;;;;;4839167;29;20363;-80
2020/12/29 08:29:38;;;;;;;30.45;5.07;;;14.50;99.90;;;;;;4839310;29;20030;-74
2020/12/29 08:32:06;;;;;;;35.78;6.47;;;14.60;99.90;;;;;;4839364;29;20049;-74
2020/12/29 08:34:33;;;;;;;32.58;7.35;;;14.60;99.90;;;;;;4836000;29;20062;-81
2020/12/29 08:37:01;;;;;;;36.38;7.18;;;14.70;99.90;;;;;;4823403;29;20392;-74
2020/12/29 08:39:40;;;;;;;30.90;5.57;;;14.70;99.90;;;;;;4820230;29;20034;-75
2020/12/29 08:42:11;;;;;;;28.38;5.28;;;14.80;99.90;;;;;;4837584;29;20038;-75
2020/12/29 08:44:43;;;;;;;31.83;4.47;;;14.80;99.90;;;;;;4839745;29;20037;-75
2020/12/29 08:47:13;;;;;;;26.45;5.75;;;14.90;99.90;;;;;;4839386;29;20396;-75
2020/12/29 08:49:40;;;;;;;26.50;5.10;;;15.00;99.90;;;;;;4839699;29;20026;-80
2020/12/29 08:52:06;;;;;;;28.92;6.93;;;15.10;99.90;;;;;;4828980;29;20073;-74
2020/12/29 08:54:37;;;;;;;37.55;5.80;;;15.10;99.90;;;;;;4842771;29;20036;-75
2020/12/29 08:57:07;;;;;;;26.58;5.82;;;15.20;99.90;;;;;;4830222;29;20027;-73
2020/12/29 08:59:40;;;;;;;23.77;5.18;;;15.30;99.90;;;;;;4833093;29;20038;-76
2020/12/29 09:02:07;;;;;;;34.85;6.75;;;15.30;99.90;;;;;;4828774;29;20454;-74
2020/12/29 09:04:36;;;;;;;32.08;6.88;;;15.30;99.90;;;;;;4839218;29;20033;-75
2020/12/29 09:07:02;;;;;;;20.85;6.22;;;15.30;99.90;;;;;;4838773;29;20054;-74
2020/12/29 09:09:30;;;;;;;27.33;6.47;;;15.30;99.90;;;;;;4812732;29;20034;-79
2020/12/29 09:12:17;;;;;;;32.88;5.80;;;15.30;99.90;;;;;;4819191;29;20041;-72
2020/12/29 09:15:24;;;;;;;24.05;6.25;;;15.30;99.90;;;;;;4825113;29;20388;-81
2020/12/29 09:17:57;;;;;;;26.60;6.05;;;15.40;99.90;;;;;;4808350;29;20117;-74
2020/12/29 09:20:23;;;;;;;;;;;15.50;99.90;;;;;;4824427;29;20034;-75
2020/12/29 09:22:58;;;;;;;38.03;3.67;;;15.40;99.90;;;;;;4838707;29;20396;-74
2020/12/29 09:25:38;;;;;;;25.02;4.53;;;15.50;99.90;;;;;;4838845;29;20486;-74
2020/12/29 09:28:24;;;;;;;31.77;5.80;;;15.40;99.90;;;;;;4807125;29;20090;-73
2020/12/29 09:31:05;;;;;;;25.75;4.13;;;15.40;99.90;;;;;;4815677;29;20038;-73
2020/12/29 09:33:32;;;;;;;28.00;5.70;;;15.40;99.90;;;;;;4832417;29;20128;-74
2020/12/29 09:36:02;;;;;;;48.20;6.55;;;15.30;99.90;;;;;;4837932;29;20568;-74
2020/12/29 09:38:28;;;;;;;20.20;6.03;;;15.30;99.90;;;;;;4838575;29;20034;-75
2020/12/29 09:40:55;;;;;;;26.48;4.85;;;15.30;99.90;;;;;;4837566;29;20026;-73
2020/12/29 09:43:24;;;;;;;27.67;5.78;;;15.30;99.90;;;;;;4832579;29;20371;-73
2020/12/29 09:45:50;;;;;;;32.50;6.13;;;15.30;99.90;;;;;;4822411;29;20048;-74
2020/12/29 09:48:17;;;;;;;26.85;5.30;;;15.40;99.90;;;;;;4836178;29;20038;-74
2020/12/29 09:50:44;;;;;;;34.50;6.70;;;15.50;99.90;;;;;;4826533;29;20022;-75
2020/12/29 09:53:10;;;;;;;26.30;5.00;;;15.60;99.90;;;;;;4830745;29;20091;-78
2020/12/29 09:55:38;;;;;;;22.17;4.32;;;15.70;99.90;;;;;;4838027;29;20041;-74
2020/12/29 09:58:04;;;;;;;28.73;5.30;;;15.80;99.90;;;;;;4823368;29;20104;-74
2020/12/29 10:00:30;;;;;;;20.48;3.63;;;16.00;99.90;;;;;;4834336;29;20027;-73
2020/12/29 10:03:00;;;;;;;31.45;5.32;;;16.00;99.90;;;;;;4826321;29;20041;-74
2020/12/29 10:05:26;;;;;;;25.05;5.05;;;16.20;99.90;;;;;;4838105;29;20170;-75
2020/12/29 10:07:53;;;;;;;16.77;5.35;;;16.30;99.90;;;;;;4838540;29;20086;-74
2020/12/29 10:10:19;;;;;;;29.30;6.60;;;16.50;99.90;;;;;;4825504;29;20082;-72
2020/12/29 10:12:46;;;;;;;31.55;6.55;;;16.80;99.90;;;;;;4838110;29;20070;-73
2020/12/29 10:15:12;;;;;;;45.30;6.00;;;17.00;99.90;;;;;;4841447;29;20519;-76
2020/12/29 10:17:38;;;;;;;42.15;6.95;;;16.90;99.90;;;;;;4842189;29;20034;-72
2020/12/29 10:20:06;;;;;;;30.50;5.25;;;16.90;99.90;;;;;;4826838;29;20045;-73
2020/12/29 10:22:32;;;;;;;22.63;4.82;;;16.90;99.90;;;;;;4837700;29;20147;-73
2020/12/29 10:24:58;;;;;;;33.47;6.18;;;17.10;99.90;;;;;;4838825;29;20066;-80
2020/12/29 10:27:24;;;;;;;31.80;6.18;;;17.30;99.90;;;;;;4830666;29;20040;-76
2020/12/29 10:29:50;;;;;;;38.40;5.15;;;17.30;99.90;;;;;;4838000;29;20041;-81
2020/12/29 10:32:20;;;;;;;18.38;4.47;;;17.40;99.90;;;;;;4826524;29;20034;-72
2020/12/29 10:34:47;;;;;;;29.23;6.43;;;17.40;99.90;;;;;;4838075;29;20045;-75
2020/12/29 10:37:13;;;;;;;29.27;4.75;;;17.20;99.90;;;;;;4841627;29;20040;-79
2020/12/29 10:39:39;;;;;;;21.15;4.50;;;17.20;99.90;;;;;;4828508;29;20050;-73
2020/12/29 10:42:05;;;;;;;39.10;6.40;;;17.20;99.90;;;;;;4838047;29;20125;-72
2020/12/29 10:44:31;;;;;;;33.83;7.53;;;17.40;99.90;;;;;;4809869;29;20033;-72
2020/12/29 10:46:57;;;;;;;32.53;6.00;;;17.40;99.90;;;;;;4832931;29;20045;-72
2020/12/29 10:49:24;;;;;;;36.08;4.93;;;17.40;99.90;;;;;;4833762;29;20118;-73
2020/12/29 10:51:51;;;;;;;26.27;5.63;;;17.60;99.90;;;;;;4836892;29;20053;-72
2020/12/29 10:54:17;;;;;;;33.17;5.82;;;17.60;99.90;;;;;;4831953;29;20042;-73
2020/12/29 10:56:43;;;;;;;22.98;5.13;;;17.60;99.90;;;;;;4837216;29;20053;-72
2020/12/29 10:59:09;;;;;;;30.65;5.57;;;17.80;99.90;;;;;;4837531;29;20030;-73
2020/12/29 11:01:35;;;;;;;28.83;4.93;;;17.70;99.90;;;;;;4838675;29;20121;-72
2020/12/29 11:04:01;;;;;;;28.42;5.50;;;17.60;99.90;;;;;;4837666;29;20034;-75
2020/12/29 11:06:27;;;;;;;22.75;5.88;;;17.60;99.90;;;;;;4838917;29;20080;-73
2020/12/29 11:08:54;;;;;;;25.17;4.72;;;17.70;99.90;;;;;;4836439;29;20034;-73
2020/12/29 11:11:20;;;;;;;29.33;4.50;;;17.80;99.90;;;;;;4835373;29;20054;-73
2020/12/29 11:13:47;;;;;;;28.42;5.10;;;17.90;99.90;;;;;;4827291;29;20065;-73
2020/12/29 11:16:17;;;;;;;21.65;4.70;;;17.90;99.90;;;;;;4839405;29;20034;-73
2020/12/29 11:18:44;;;;;;;24.55;5.82;;;17.70;99.90;;;;;;4841030;29;20030;-74
2020/12/29 11:21:10;;;;;;;23.75;4.40;;;17.80;99.90;;;;;;4830949;29;20549;-76
2020/12/29 11:23:37;;;;;;;27.17;4.70;;;17.80;99.90;;;;;;4835294;29;20485;-74
2020/12/29 11:26:04;;;;;;;24.42;5.93;;;17.90;99.90;;;;;;4832254;29;20544;-73
2020/12/29 11:28:31;;;;;;;30.25;5.85;;;17.80;99.90;;;;;;4838071;29;20077;-73
2020/12/29 11:30:57;;;;;;;22.42;5.15;;;17.80;99.90;;;;;;4840195;29;20167;-73
2020/12/29 11:33:23;;;;;;;36.95;5.95;;;17.90;99.90;;;;;;4833966;29;20046;-73
2020/12/29 11:35:50;;;;;;;34.08;5.28;;;18.00;99.90;;;;;;4840229;29;20389;-74
2020/12/29 11:38:22;;;;;;;28.95;3.95;;;18.00;99.90;;;;;;4840274;29;20165;-73
2020/12/29 11:40:49;;;;;;;25.40;5.38;;;17.90;99.90;;;;;;4839552;29;20045;-74
2020/12/29 11:43:15;;;;;;;29.27;4.68;;;18.00;99.90;;;;;;4814437;29;20022;-73
2020/12/29 11:45:44;;;;;;;24.75;6.43;;;17.90;99.90;;;;;;4839727;29;20142;-75
2020/12/29 11:48:11;;;;;;;27.10;5.72;;;17.90;99.90;;;;;;4840006;29;20033;-72
2020/12/29 11:50:37;;;;;;;21.00;5.05;;;17.90;99.90;;;;;;4835479;29;20030;-74
2020/12/29 11:53:03;;;;;;;24.58;5.03;;;18.00;99.90;;;;;;4813956;29;20392;-72
2020/12/29 11:55:29;;;;;;;34.28;6.57;;;18.00;99.90;;;;;;4828778;29;20057;-73
2020/12/29 11:57:55;;;;;;;23.17;5.43;;;18.10;99.90;;;;;;4836324;29;20247;-79
2020/12/29 12:00:22;;;;;;;29.23;4.40;;;18.00;99.90;;;;;;4823760;29;20030;-72
2020/12/29 12:02:48;;;;;;;18.70;4.55;;;17.90;99.90;;;;;;4834047;29;20561;-72
2020/12/29 12:05:14;;;;;;;23.65;5.57;;;17.90;99.90;;;;;;4831767;29;20120;-74
2020/12/29 12:07:40;;;;;;;25.13;5.95;;;17.90;99.90;;;;;;4836741;29;20099;-73
2020/12/29 12:10:08;;;;;;;21.25;3.45;;;18.00;99.90;;;;;;4839374;29;20045;-74
2020/12/29 12:12:35;;;;;;;14.65;4.03;;;18.00;99.90;;;;;;4839223;29;20044;-73
2020/12/29 12:15:02;;;;;;;17.05;4.03;;;18.00;99.90;;;;;;4832003;29;20030;-74
2020/12/29 12:17:28;;;;;;;24.77;5.32;;;18.00;99.90;;;;;;4837735;29;20421;-73
2020/12/29 12:19:54;;;;;;;18.67;3.65;;;17.90;99.90;;;;;;4839886;29;20384;-73
2020/12/29 12:22:20;;;;;;;36.92;4.95;;;17.80;99.90;;;;;;4824569;29;20094;-73
2020/12/29 12:24:46;;;;;;;32.20;5.68;;;17.80;99.90;;;;;;4833752;29;20423;-74
2020/12/29 12:27:12;;;;;;;22.52;5.35;;;17.80;99.90;;;;;;4833214;29;20034;-74
2020/12/29 12:29:38;;;;;;;28.17;5.10;;;18.00;99.90;;;;;;4836468;29;20046;-74
2020/12/29 12:32:05;;;;;;;30.50;6.10;;;18.10;99.90;;;;;;4837645;29;20033;-74
2020/12/29 12:34:31;;;;;;;19.20;4.75;;;17.90;99.90;;;;;;4825525;29;20109;-74
2020/12/29 12:36:57;;;;;;;29.83;6.10;;;17.80;99.90;;;;;;4839298;29;20026;-77
2020/12/29 12:39:23;;;;;;;32.35;4.55;;;17.60;99.90;;;;;;4839219;29;20094;-74
2020/12/29 12:41:49;;;;;;;23.58;4.20;;;17.40;99.90;;;;;;4825625;29;20048;-77
2020/12/29 12:44:15;;;;;;;21.85;6.18;;;17.20;99.90;;;;;;4820092;29;20505;-75
2020/12/29 12:46:42;;;;;;;27.45;5.28;;;17.30;99.90;;;;;;4827763;29;20055;-81
2020/12/29 12:49:11;;;;;;;23.67;4.95;;;17.40;99.90;;;;;;4822380;29;20527;-77
2020/12/29 12:51:44;;;;;;;31.02;6.35;;;17.30;99.90;;;;;;4822975;29;20046;-80
2020/12/29 12:54:10;;;;;;;15.93;4.15;;;17.20;99.90;;;;;;4824554;29;20828;-74
2020/12/29 12:56:42;;;;;;;32.17;6.53;;;17.10;99.90;;;;;;4834771;29;20031;-75
2020/12/29 12:59:10;;;;;;;25.02;5.60;;;17.10;99.90;;;;;;4829569;29;20106;-73
2020/12/29 13:01:36;;;;;;;26.50;3.85;;;17.40;99.90;;;;;;4839341;29;20036;-74
2020/12/29 13:04:02;;;;;;;32.85;4.97;;;17.40;99.90;;;;;;4837485;29;20033;-74
2020/12/29 13:06:29;;;;;;;18.27;4.10;;;17.50;99.90;;;;;;4835305;29;20093;-74
2020/12/29 13:08:56;;;;;;;32.22;5.25;;;17.60;99.90;;;;;;4835790;29;20026;-73
2020/12/29 13:11:22;;;;;;;29.48;5.22;;;17.70;99.90;;;;;;4838118;29;20484;-73
2020/12/29 13:13:48;;;;;;;25.85;4.40;;;17.80;99.90;;;;;;4838972;29;20507;-74
2020/12/29 13:16:19;;;;;;;23.10;5.78;;;17.70;99.90;;;;;;4826002;29;20030;-81
2020/12/29 13:18:45;;;;;;;32.53;4.38;;;17.70;99.90;;;;;;4833229;29;20030;-75
2020/12/29 13:21:19;;;;;;;24.77;5.40;;;17.90;99.90;;;;;;4830814;29;20031;-74
2020/12/29 13:23:45;;;;;;;31.42;5.47;;;17.90;99.90;;;;;;4828849;29;20121;-76
2020/12/29 13:26:16;;;;;;;20.80;4.65;;;17.70;99.90;;;;;;4827857;29;20123;-75
2020/12/29 13:28:44;;;;;;;16.95;4.55;;;18.00;99.90;;;;;;4804768;29;20544;-75
2020/12/29 13:31:10;;;;;;;22.58;5.82;;;17.80;99.90;;;;;;4836133;29;20042;-75
2020/12/29 13:33:40;;;;;;;17.85;3.80;;;17.60;99.90;;;;;;4839020;29;20472;-75
2020/12/29 13:36:07;;;;;;;19.30;4.03;;;17.40;99.90;;;;;;4822180;29;20537;-75
2020/12/29 13:38:37;;;;;;;25.55;5.03;;;17.10;99.90;;;;;;4823019;29;20493;-75
2020/12/29 13:41:04;;;;;;;24.48;4.57;;;16.80;99.90;;;;;;4838456;29;20445;-74
2020/12/29 13:43:34;;;;;;;13.07;3.75;;;16.60;99.90;;;;;;4838808;29;20109;-82
2020/12/29 13:46:00;;;;;;;24.13;4.53;;;16.50;99.90;;;;;;4822542;29;20026;-79
2020/12/29 13:48:27;;;;;;;23.73;4.30;;;16.30;99.90;;;;;;4839121;29;20045;-75
2020/12/29 13:50:54;;;;;;;17.52;3.35;;;16.30;99.90;;;;;;4838460;29;20521;-75
2020/12/29 13:53:20;;;;;;;26.48;4.82;;;16.20;99.90;;;;;;4838875;29;20087;-76
2020/12/29 13:55:47;;;;;;;25.00;4.32;;;16.10;99.90;;;;;;4838771;29;20488;-75
2020/12/29 13:58:14;;;;;;;17.75;4.95;;;16.10;99.90;;;;;;4838917;29;20038;-76
2020/12/29 14:00:40;;;;;;;20.42;4.65;;;16.00;99.90;;;;;;4838722;29;20189;-76
2020/12/29 14:03:07;;;;;;;13.70;3.78;;;16.20;99.90;;;;;;4838710;29;20539;-75
2020/12/29 14:05:36;;;;;;;17.83;4.55;;;16.50;99.90;;;;;;4835091;29;20410;-73
2020/12/29 14:08:05;;;;;;;17.63;3.33;;;16.60;99.90;;;;;;4836005;29;20033;-73
2020/12/29 14:10:33;;;;;;;17.98;5.53;;;16.80;99.90;;;;;;4834472;29;20105;-73
2020/12/29 14:13:00;;;;;;;12.93;3.42;;;16.70;99.90;;;;;;4837732;29;20030;-74
2020/12/29 14:15:27;;;;;;;14.82;4.15;;;16.80;99.90;;;;;;4827403;29;20038;-73
2020/12/29 14:17:54;;;;;;;32.80;5.75;;;16.70;99.90;;;;;;4818147;29;20570;-74
2020/12/29 14:20:20;;;;;;;27.92;5.05;;;16.60;99.90;;;;;;4836596;29;20101;-73
2020/12/29 14:22:47;;;;;;;13.55;3.38;;;16.70;99.90;;;;;;4837746;29;20074;-73
2020/12/29 14:25:13;;;;;;;25.17;5.03;;;16.70;99.90;;;;;;4838154;29;20033;-74
2020/12/29 14:27:39;;;;;;;29.55;5.25;;;16.60;99.90;;;;;;4825581;29;20065;-73
2020/12/29 14:30:06;;;;;;;23.30;5.47;;;16.50;99.90;;;;;;4835642;29;20077;-74
2020/12/29 14:32:32;;;;;;;20.27;4.18;;;16.40;99.90;;;;;;4834845;29;20034;-73
2020/12/29 14:34:58;;;;;;;24.20;4.43;;;16.40;99.90;;;;;;4837910;29;20030;-74
2020/12/29 14:37:24;;;;;;;20.60;4.43;;;16.40;99.90;;;;;;4826791;29;20520;-75
2020/12/29 14:39:50;;;;;;;29.20;4.43;;;16.20;99.90;;;;;;4817514;29;20441;-74
2020/12/29 14:42:17;;;;;;;16.83;4.00;;;16.20;99.90;;;;;;4835415;29;20113;-74
2020/12/29 14:44:43;;;;;;;16.35;5.45;;;16.10;99.90;;;;;;4827802;29;20034;-74
2020/12/29 14:47:09;;;;;;;33.67;6.60;;;16.10;99.90;;;;;;4837923;29;20026;-73
2020/12/29 14:49:36;;;;;;;25.80;5.03;;;16.00;99.90;;;;;;4812295;29;20045;-73
2020/12/29 14:52:03;;;;;;;22.80;3.90;;;15.90;99.90;;;;;;4837405;29;20030;-73
2020/12/29 14:54:43;;;;;;;27.90;4.00;;;15.70;99.90;;;;;;4836679;29;20071;-73
2020/12/29 14:57:09;;;;;;;16.70;4.03;;;15.50;99.90;;;;;;4832385;29;20030;-74
2020/12/29 14:59:35;;;;;;;23.33;5.15;;;15.30;99.90;;;;;;4835209;29;20519;-73
2020/12/29 15:02:02;;;;;;;20.45;3.67;;;15.10;99.90;;;;;;4840569;29;20041;-77
2020/12/29 15:04:28;;;;;;;23.77;4.00;;;14.90;99.90;;;;;;4839556;29;20155;-73
2020/12/29 15:06:56;;;;;;;27.17;4.53;;;14.80;99.90;;;;;;4840777;29;20398;-73
2020/12/29 15:09:22;;;;;;;22.63;4.55;;;14.70;99.90;;;;;;4841140;29;20042;-73
2020/12/29 15:11:49;;;;;;;20.10;4.18;;;14.80;99.90;;;;;;4827027;29;20038;-74
2020/12/29 15:14:15;;;;;;;24.10;5.50;;;14.80;99.90;;;;;;4837299;29;20050;-73
2020/12/29 15:16:40;;;;;;;20.33;4.70;;;14.80;99.90;;;;;;4833531;29;20030;-72
2020/12/29 15:19:06;;;;;;;20.90;3.58;;;14.80;99.90;;;;;;4830856;29;20378;-74
2020/12/29 15:21:33;;;;;;;13.50;3.78;;;14.50;99.90;;;;;;4835208;29;20074;-73
2020/12/29 15:23:59;;;;;;;23.60;5.45;;;14.40;99.90;;;;;;4833497;29;20042;-74
2020/12/29 15:26:26;;;;;;;27.70;4.50;;;14.30;99.90;;;;;;4840695;29;20041;-74
2020/12/29 15:28:52;;;;;;;18.23;4.05;;;14.20;99.90;;;;;;4840799;29;20034;-73
2020/12/29 15:31:19;;;;;;;23.63;4.75;;;14.20;99.90;;;;;;4830951;29;20038;-73
2020/12/29 15:33:46;;;;;;;19.60;4.55;;;14.20;99.90;;;;;;4835073;29;20121;-73
2020/12/29 15:36:13;;;;;;;15.30;3.15;;;14.10;99.90;;;;;;4839812;29;20034;-77
2020/12/29 15:38:40;;;;;;;25.75;4.13;;;14.00;99.90;;;;;;4836220;29;20090;-76
2020/12/29 15:41:07;;;;;;;25.17;4.05;;;13.90;99.90;;;;;;4830819;29;20026;-74
2020/12/29 15:43:33;;;;;;;13.32;3.92;;;13.90;99.90;;;;;;4833783;29;20036;-76
2020/12/29 15:45:59;;;;;;;15.38;3.72;;;13.90;99.90;;;;;;4832612;29;20029;-74
2020/12/29 15:48:26;;;;;;;27.05;5.03;;;13.90;99.90;;;;;;4830494;29;20038;-73
2020/12/29 15:50:52;;;;;;;13.80;3.20;;;13.80;99.90;;;;;;4823090;29;20438;-74
2020/12/29 15:53:18;;;;;;;16.02;3.75;;;13.80;99.90;;;;;;4832286;29;20042;-73
2020/12/29 15:55:45;;;;;;;14.98;4.03;;;13.80;99.90;;;;;;4838034;29;20030;-73
2020/12/29 15:58:11;;;;;;;13.90;3.97;;;13.70;99.90;;;;;;4840091;29;20506;-74
2020/12/29 16:00:37;;;;;;;22.70;4.82;;;13.70;99.90;;;;;;4838461;29;20401;-73
2020/12/29 16:03:03;;;;;;;10.55;2.90;;;13.80;99.90;;;;;;4840261;29;20026;-73
2020/12/29 16:05:29;;;;;;;26.42;4.05;;;13.80;99.90;;;;;;4839467;29;20090;-73
2020/12/29 16:07:56;;;;;;;21.90;3.97;;;13.70;99.90;;;;;;4831075;29;20038;-73
2020/12/29 16:10:24;;;;;;;23.17;5.05;;;13.80;99.90;;;;;;4832530;29;20034;-73
2020/12/29 16:12:50;;;;;;;15.45;3.92;;;13.80;99.90;;;;;;4833200;29;20533;-82
2020/12/29 16:15:17;;;;;;;23.60;5.20;;;13.80;99.90;;;;;;4838559;29;20026;-82
2020/12/29 16:17:43;;;;;;;17.52;4.95;;;13.90;99.90;;;;;;4839300;29;20038;-82
2020/12/29 16:20:10;;;;;;;25.02;5.68;;;13.90;99.90;;;;;;4832478;29;20034;-81
2020/12/29 16:22:36;;;;;;;19.42;5.80;;;13.90;99.90;;;;;;4825495;29;20026;-84
2020/12/29 16:25:02;;;;;;;19.15;6.03;;;13.90;99.90;;;;;;4837078;29;20029;-82
2020/12/29 16:27:28;;;;;;;19.98;4.63;;;14.00;99.90;;;;;;4836485;29;20040;-74
2020/12/29 16:29:54;;;;;;;21.05;4.28;;;14.00;99.90;;;;;;4824597;29;20125;-78
2020/12/29 16:32:22;;;;;;;20.30;4.57;;;14.00;99.90;;;;;;4821355;29;20038;-77
2020/12/29 16:34:49;;;;;;;26.40;6.15;;;14.00;99.90;;;;;;4831291;29;20562;-74
2020/12/29 16:37:16;;;;;;;17.45;5.05;;;13.90;99.90;;;;;;4834539;29;20042;-73
2020/12/29 16:39:42;;;;;;;22.48;3.92;;;13.70;99.90;;;;;;4831267;29;20033;-73
2020/12/29 16:42:13;;;;;;;19.63;4.90;;;13.70;99.90;;;;;;4829796;29;20034;-83
2020/12/29 16:44:41;;;;;;;24.17;4.00;;;13.60;99.90;;;;;;4836065;29;20030;-84
2020/12/29 16:47:08;;;;;;;21.67;4.25;;;13.60;99.90;;;;;;4813168;29;20042;-73
2020/12/29 16:49:34;;;;;;;22.98;3.75;;;13.60;99.90;;;;;;4831697;29;20109;-72
2020/12/29 16:52:01;;;;;;;16.90;3.67;;;13.60;99.90;;;;;;4835044;29;20078;-74
2020/12/29 16:54:27;;;;;;;16.70;3.97;;;13.60;99.90;;;;;;4818626;29;20056;-74
2020/12/29 16:56:59;;;;;;;9.93;2.75;;;13.60;99.90;;;;;;4829467;29;20098;-73
2020/12/29 16:59:25;;;;;;;20.38;4.50;;;13.50;99.90;;;;;;4831941;29;20589;-73
2020/12/29 17:01:51;;;;;;;15.75;2.85;;;13.50;99.90;;;;;;4832287;29;20030;-73
2020/12/29 17:04:18;;;;;;;20.77;4.70;;;13.50;99.90;;;;;;4823312;29;20047;-73
2020/12/29 17:06:45;;;;;;;21.92;3.75;;;13.40;99.90;;;;;;4836139;29;20790;-74
2020/12/29 17:09:11;;;;;;;19.00;4.18;;;13.40;99.90;;;;;;4822483;29;20393;-80
2020/12/29 17:11:37;;;;;;;14.00;3.35;;;13.50;99.90;;;;;;4831677;29;20034;-84
2020/12/29 17:14:04;;;;;;;16.00;4.53;;;13.50;99.90;;;;;;4833820;29;20088;-73
2020/12/29 17:16:32;;;;;;;22.52;4.22;;;13.50;99.90;;;;;;4830318;29;20516;-73
2020/12/29 17:18:58;;;;;;;14.07;3.80;;;13.40;99.90;;;;;;4833190;29;20463;-74
2020/12/29 17:21:26;;;;;;;16.75;4.32;;;13.40;99.90;;;;;;4830292;29;20038;-74
2020/12/29 17:23:54;;;;;;;12.05;4.43;;;13.40;99.90;;;;;;4831632;29;20037;-74
2020/12/29 17:26:25;;;;;;;19.65;4.65;;;13.30;99.90;;;;;;4828603;29;20117;-74
2020/12/29 17:28:54;;;;;;;26.55;4.95;;;13.30;99.90;;;;;;4829964;29;20105;-73
2020/12/29 17:31:22;;;;;;;27.52;5.28;;;13.30;99.90;;;;;;4825881;29;20079;-73
2020/12/29 17:33:48;;;;;;;23.27;4.15;;;13.30;99.90;;;;;;4834481;29;20042;-73
2020/12/29 17:36:15;;;;;;;20.60;4.07;;;13.30;99.90;;;;;;4829871;29;20543;-73
2020/12/29 17:38:44;;;;;;;23.23;4.28;;;13.20;99.90;;;;;;4828916;29;20042;-73
2020/12/29 17:41:11;;;;;;;16.90;4.65;;;13.30;99.90;;;;;;4831111;29;20043;-73
2020/12/29 17:43:39;;;;;;;27.08;5.88;;;13.30;99.90;;;;;;4826103;29;20038;-73
2020/12/29 17:46:10;;;;;;;20.52;4.90;;;13.30;99.90;;;;;;4837570;29;20033;-73
2020/12/29 17:48:40;;;;;;;13.35;4.38;;;13.30;99.90;;;;;;4828182;29;20862;-73
2020/12/29 17:51:11;;;;;;;31.05;6.95;;;13.30;99.90;;;;;;4832268;29;20057;-73
2020/12/29 17:53:37;;;;;;;32.92;7.53;;;13.30;99.90;;;;;;4826107;29;20053;-74
2020/12/29 17:56:03;;;;;;;29.48;6.30;;;13.30;99.90;;;;;;4828661;29;20065;-74
2020/12/29 17:58:30;;;;;;;19.65;6.68;;;13.40;99.90;;;;;;4828432;29;20086;-74
2020/12/29 18:01:00;;;;;;;19.65;6.53;;;13.40;99.90;;;;;;4832797;29;20054;-74
2020/12/29 18:03:27;;;;;;;29.38;6.55;;;13.40;99.90;;;;;;4821814;29;20089;-75
2020/12/29 18:05:54;;;;;;;28.27;6.18;;;13.40;99.90;;;;;;4816868;29;20050;-74
2020/12/29 18:08:20;;;;;;;19.15;4.60;;;13.40;99.90;;;;;;4811181;29;20119;-73
2020/12/29 18:10:47;;;;;;;27.65;5.82;;;13.40;99.90;;;;;;4819572;29;20474;-73
2020/12/29 18:13:13;;;;;;;20.10;5.50;;;13.40;99.90;;;;;;4813373;29;20058;-74
2020/12/29 18:15:39;;;;;;;25.90;5.43;;;13.40;99.90;;;;;;4791935;29;20439;-74
2020/12/29 18:18:06;;;;;;;26.17;4.93;;;13.40;99.90;;;;;;4813873;29;20038;-78
2020/12/29 18:20:32;;;;;;;29.65;6.03;;;13.40;99.90;;;;;;4819843;29;20052;-73
2020/12/29 18:22:58;;;;;;;28.17;5.55;;;13.40;99.90;;;;;;4815885;29;20019;-73
2020/12/29 18:25:25;;;;;;;32.20;5.78;;;13.50;99.90;;;;;;4808367;29;20055;-74
2020/12/29 18:27:54;;;;;;;24.48;6.80;;;13.50;99.90;;;;;;4809062;29;20479;-74
2020/12/29 18:30:20;;;;;;;32.70;6.43;;;13.60;99.90;;;;;;4816811;29;20027;-74
2020/12/29 18:32:46;;;;;;;34.33;7.07;;;13.50;99.90;;;;;;4823049;29;20062;-84
2020/12/29 18:35:12;;;;;;;24.88;6.03;;;13.50;99.90;;;;;;4821333;29;20584;-75
2020/12/29 18:37:38;;;;;;;29.25;5.63;;;13.50;99.90;;;;;;4832195;29;20038;-74